Time;durP1;ratioP1;P1;durP2;ratioP2;P2;SDS_P1;SDS_P2;PMS_P1;PMS_P2;Temp;Humidity;BMP_temperature;BMP_pressure;BME280_temperature;BME280_humidity;BME280_pressure;Samples;Min_cycle;Max_cycle;Signal;HPM_P1;HPM_P2
2022/12/20 00:00:46;;;;;;;40.90;13.50;;;;;;;0.97;88.53;101056.36;103094;1305;22474;-59
2022/12/20 00:03:20;;;;;;;38.90;14.80;;;;;;;0.98;88.48;101053.84;103057;1306;22471;-61
2022/12/20 00:05:53;;;;;;;30.70;11.30;;;;;;;1.00;88.37;101053.35;103035;1298;24347;-61
2022/12/20 00:08:27;;;;;;;38.90;15.20;;;;;;;1.02;88.22;101048.88;103097;1300;22539;-59
2022/12/20 00:11:00;;;;;;;32.90;12.60;;;;;;;1.03;88.32;101039.30;103121;1306;23196;-61
2022/12/20 00:13:31;;;;;;;34.10;12.90;;;;;;;1.03;88.22;101035.29;103154;1282;26633;-60
2022/12/20 00:16:14;;;;;;;36.80;12.10;;;;;;;1.04;88.18;101031.52;103003;1287;22476;-60
2022/12/20 00:18:46;;;;;;;34.10;13.30;;;;;;;1.04;88.04;101031.91;103230;1282;24409;-62
2022/12/20 00:21:17;;;;;;;32.20;11.50;;;;;;;1.04;88.08;101033.01;103055;1282;23097;-59
2022/12/20 00:23:50;;;;;;;33.50;11.60;;;;;;;1.04;88.07;101035.91;103031;1291;22611;-61
2022/12/20 00:26:23;;;;;;;32.70;12.30;;;;;;;1.04;87.95;101042.52;103159;1306;22592;-59
2022/12/20 00:28:55;;;;;;;35.50;12.80;;;;;;;1.04;87.86;101039.37;103166;1305;22479;-60
2022/12/20 00:31:28;;;;;;;37.50;12.20;;;;;;;1.05;87.80;101022.09;103074;1275;25400;-62
2022/12/20 00:34:01;;;;;;;31.50;10.70;;;;;;;1.05;87.67;101028.84;103148;1275;22598;-59
2022/12/20 00:36:34;;;;;;;34.60;12.40;;;;;;;1.06;87.49;101032.84;103144;1306;24115;-61
2022/12/20 00:39:09;;;;;;;38.30;13.20;;;;;;;1.06;87.44;101026.00;103153;1288;22481;-60
2022/12/20 00:41:41;;;;;;;44.70;13.20;;;;;;;1.07;87.30;101023.26;103292;1282;25226;-59
2022/12/20 00:44:12;;;;;;;39.00;13.50;;;;;;;1.07;87.19;101017.45;103146;1305;24315;-60
2022/12/20 00:46:43;;;;;;;37.00;13.60;;;;;;;1.08;87.25;101020.03;103190;1278;25357;-60
2022/12/20 00:49:15;;;;;;;35.70;12.80;;;;;;;1.09;87.08;101020.81;103131;1304;22513;-60
2022/12/20 00:51:47;;;;;;;36.70;14.00;;;;;;;1.09;87.13;101020.27;102390;1274;1379075;-59
2022/12/20 00:54:22;;;;;;;38.50;12.60;;;;;;;1.09;87.05;101016.10;103060;1298;22590;-61
2022/12/20 00:56:53;;;;;;;37.00;13.80;;;;;;;1.10;86.97;101018.29;103130;1282;22693;-60
2022/12/20 00:59:24;;;;;;;34.50;12.80;;;;;;;1.10;87.05;101019.48;103132;1304;22481;-58
2022/12/20 01:01:56;;;;;;;40.40;14.80;;;;;;;1.10;86.97;101017.67;103216;1306;22485;-60
2022/12/20 01:04:27;;;;;;;39.50;14.20;;;;;;;1.09;87.04;101025.05;103174;1275;26587;-59
2022/12/20 01:06:58;;;;;;;38.30;15.00;;;;;;;1.09;86.91;101032.21;103051;1306;22583;-59
2022/12/20 01:09:29;;;;;;;41.40;15.00;;;;;;;1.09;87.02;101048.16;102988;1282;22605;-60
2022/12/20 01:12:02;;;;;;;35.20;12.60;;;;;;;1.09;87.10;101050.60;103131;1304;22461;-58
2022/12/20 01:14:33;;;;;;;40.10;15.80;;;;;;;1.09;86.96;101040.15;103007;1306;22462;-60
2022/12/20 01:17:06;;;;;;;37.50;14.30;;;;;;;1.09;86.88;101043.14;103114;1306;22482;-58
2022/12/20 01:19:41;;;;;;;34.40;13.00;;;;;;;1.08;86.79;101040.14;103047;1306;22473;-57
2022/12/20 01:22:14;;;;;;;37.90;14.50;;;;;;;1.07;86.71;101035.52;103102;1296;22466;-59
2022/12/20 01:24:45;;;;;;;41.80;15.10;;;;;;;1.08;86.72;101039.29;103056;1275;22473;-56
2022/12/20 01:27:16;;;;;;;35.50;12.50;;;;;;;1.07;86.53;101033.15;103155;1305;25881;-57
2022/12/20 01:29:48;;;;;;;37.60;12.30;;;;;;;1.07;86.39;101035.13;103154;1282;22462;-59
2022/12/20 01:32:20;;;;;;;30.40;11.40;;;;;;;1.08;86.32;101030.48;103116;1305;25218;-59
2022/12/20 01:34:51;;;;;;;32.80;12.00;;;;;;;1.10;86.42;101029.14;103230;1306;25669;-56
2022/12/20 01:37:23;;;;;;;36.40;13.40;;;;;;;1.10;86.26;101032.67;103163;1306;22826;-59
2022/12/20 01:39:56;;;;;;;31.50;11.80;;;;;;;1.10;86.20;101031.73;103061;1292;24441;-59
2022/12/20 01:42:29;;;;;;;31.50;11.90;;;;;;;1.09;86.10;101020.05;103208;1305;22469;-58
2022/12/20 01:45:01;;;;;;;35.40;12.70;;;;;;;1.08;85.91;101015.63;103147;1288;22506;-58
2022/12/20 01:47:37;;;;;;;36.70;13.00;;;;;;;1.08;85.79;101012.25;103055;1282;22486;-56
2022/12/20 01:50:10;;;;;;;35.90;13.00;;;;;;;1.07;85.88;101010.45;103265;1305;25232;-59
2022/12/20 01:52:45;;;;;;;34.40;12.40;;;;;;;1.05;85.64;101005.52;103171;1306;25380;-59
2022/12/20 01:55:20;;;;;;;32.50;11.40;;;;;;;1.04;85.51;101005.43;103183;1275;22456;-59
2022/12/20 01:57:57;;;;;;;38.70;13.50;;;;;;;1.03;85.57;100990.90;103009;1282;22517;-60
2022/12/20 02:00:29;;;;;;;39.00;13.70;;;;;;;1.01;85.54;100979.98;103192;1278;25351;-59
2022/12/20 02:03:04;;;;;;;39.10;13.90;;;;;;;1.00;85.41;100968.98;103188;1305;25739;-59
2022/12/20 02:05:39;;;;;;;33.10;12.00;;;;;;;1.00;85.22;100963.41;103118;1275;22467;-59
2022/12/20 02:08:12;;;;;;;38.00;12.10;;;;;;;0.99;85.25;100963.27;103104;1282;26223;-60
2022/12/20 02:11:00;;;;;;;31.60;11.10;;;;;;;0.98;85.08;100966.02;103254;1298;24362;-59
2022/12/20 02:13:43;;;;;;;33.90;11.40;;;;;;;0.98;84.96;100968.20;103278;1282;22461;-59
2022/12/20 02:16:21;;;;;;;33.40;10.80;;;;;;;0.97;84.91;100960.76;103194;1305;24318;-60
2022/12/20 02:18:59;;;;;;;29.50;11.10;;;;;;;0.97;84.99;100952.59;103189;1278;25378;-61
2022/12/20 02:21:39;;;;;;;33.80;11.90;;;;;;;0.96;84.57;100955.73;103060;1282;25326;-59
2022/12/20 02:24:45;;;;;;;36.60;12.90;;;;;;;0.97;84.90;100955.02;103090;1305;23129;-59
2022/12/20 02:27:41;;;;;;;33.70;11.30;;;;;;;0.98;84.83;100955.41;103092;1299;24432;-61
2022/12/20 02:30:16;;;;;;;29.70;11.00;;;;;;;0.98;84.81;100953.76;103078;1282;23221;-59
2022/12/20 02:33:04;;;;;;;39.00;12.70;;;;;;;0.97;84.61;100957.52;103056;1305;26249;-60
2022/12/20 02:35:38;;;;;;;30.80;11.70;;;;;;;0.98;84.59;100952.66;103090;1278;25471;-59
2022/12/20 02:38:27;;;;;;;37.00;13.50;;;;;;;0.99;84.80;100952.42;103050;1282;22476;-59
2022/12/20 02:41:02;;;;;;;29.80;10.10;;;;;;;1.00;84.73;100944.79;103181;1306;22469;-59
2022/12/20 02:46:28;;;;;;;28.70;9.20;;;;;;;1.01;84.42;100930.27;103077;1282;22507;-59
2022/12/20 02:49:05;;;;;;;34.70;10.90;;;;;;;1.03;84.29;100923.96;103268;1292;24724;-60
2022/12/20 02:51:37;;;;;;;36.90;12.10;;;;;;;1.04;84.40;100915.24;103106;1282;22480;-58
2022/12/20 02:54:09;;;;;;;30.70;12.10;;;;;;;1.06;84.35;100911.86;103162;1306;22470;-59
2022/12/20 02:56:47;;;;;;;36.00;12.90;;;;;;;1.07;84.23;100910.13;103089;1305;26423;-59
2022/12/20 02:59:24;;;;;;;33.20;11.10;;;;;;;1.08;84.33;100906.36;103181;1282;24527;-61
2022/12/20 03:01:56;;;;;;;32.00;11.20;;;;;;;1.09;84.33;100896.91;102999;1306;24417;-61
2022/12/20 03:04:31;;;;;;;35.90;12.20;;;;;;;1.11;84.43;100902.96;103364;1274;22468;-59
2022/12/20 03:07:06;;;;;;;33.80;13.00;;;;;;;1.12;84.58;100904.38;103133;1282;25554;-60
2022/12/20 03:09:40;;;;;;;31.30;12.70;;;;;;;1.13;84.20;100902.73;103057;1288;25444;-59
2022/12/20 03:12:16;;;;;;;29.90;10.90;;;;;;;1.13;84.16;100905.00;103076;1282;22539;-62
2022/12/20 03:14:49;;;;;;;34.20;13.20;;;;;;;1.14;84.66;100901.92;103180;1299;22465;-59
2022/12/20 03:17:22;;;;;;;34.70;13.50;;;;;;;1.15;84.41;100895.41;103137;1282;22528;-59
2022/12/20 03:19:54;;;;;;;33.10;11.70;;;;;;;1.15;84.19;100898.55;103176;1289;25603;-59
2022/12/20 03:22:25;;;;;;;32.00;11.30;;;;;;;1.15;84.18;100900.43;103046;1282;25400;-60
2022/12/20 03:24:56;;;;;;;36.40;13.10;;;;;;;1.16;84.01;100897.36;103281;1288;25319;-59
2022/12/20 03:27:29;;;;;;;35.40;12.20;;;;;;;1.16;84.19;100895.33;103015;1282;22467;-59
2022/12/20 03:30:01;;;;;;;34.00;11.90;;;;;;;1.16;84.09;100898.55;103201;1299;25348;-60
2022/12/20 03:32:32;;;;;;;34.90;13.70;;;;;;;1.18;84.23;100892.57;103104;1306;22581;-60
2022/12/20 03:35:04;;;;;;;31.60;11.40;;;;;;;1.18;84.09;100892.25;103214;1306;22469;-60
2022/12/20 03:37:35;;;;;;;33.80;12.20;;;;;;;1.19;84.03;100892.25;103258;1283;22484;-60
2022/12/20 03:40:09;;;;;;;34.20;12.80;;;;;;;1.19;84.13;100900.41;103107;1305;23225;-60
2022/12/20 03:42:42;;;;;;;32.90;11.50;;;;;;;1.19;84.04;100905.44;103193;1305;25423;-60
2022/12/20 03:45:14;;;;;;;37.50;13.00;;;;;;;1.17;84.08;100904.20;103026;1305;24347;-59
2022/12/20 03:47:45;;;;;;;32.20;11.80;;;;;;;1.16;84.00;100903.17;103170;1284;24308;-60
2022/12/20 03:50:19;;;;;;;33.50;12.20;;;;;;;1.15;84.10;100899.89;103108;1306;22587;-59
2022/12/20 03:52:52;;;;;;;36.30;12.90;;;;;;;1.15;84.01;100903.42;103054;1306;22465;-58
2022/12/20 03:55:25;;;;;;;41.10;14.50;;;;;;;1.13;84.07;100901.94;103123;1281;25370;-60
2022/12/20 03:57:56;;;;;;;37.20;13.60;;;;;;;1.12;84.01;100912.09;103043;1275;22466;-62
2022/12/20 04:00:28;;;;;;;37.70;13.30;;;;;;;1.08;83.84;100919.31;102936;1303;22638;-59
2022/12/20 04:03:00;;;;;;;33.30;11.90;;;;;;;1.05;83.82;100909.83;103082;1305;22471;-60
2022/12/20 04:05:31;;;;;;;38.40;13.10;;;;;;;1.02;83.86;100898.21;103038;1287;22852;-57
2022/12/20 04:08:02;;;;;;;37.10;14.20;;;;;;;0.99;83.74;100896.56;103139;1306;22479;-60
2022/12/20 04:11:14;;;;;;;33.90;12.80;;;;;;;0.96;83.72;100885.50;103142;1299;22481;-61
2022/12/20 04:13:27;;;;;;;36.40;13.20;;;;;;;0.93;83.62;100880.27;103094;1305;22462;-62
2022/12/20 04:15:58;;;;;;;38.70;15.60;;;;;;;0.93;83.73;100878.61;103156;1305;24375;-60
2022/12/20 04:18:31;;;;;;;34.70;11.70;;;;;;;0.93;83.57;100878.85;103063;1306;24263;-61
2022/12/20 04:21:03;;;;;;;34.90;12.60;;;;;;;0.91;83.62;100872.02;103205;1282;25410;-59
2022/12/20 04:23:35;;;;;;;36.20;13.00;;;;;;;0.90;83.53;100886.62;103129;1306;25385;-58
2022/12/20 04:26:08;;;;;;;37.50;15.30;;;;;;;0.91;83.58;100898.02;103169;1275;22482;-60
2022/12/20 04:28:40;;;;;;;41.10;14.90;;;;;;;0.92;83.45;100894.79;103157;1304;22510;-61
2022/12/20 04:31:12;;;;;;;40.70;13.70;;;;;;;0.92;83.64;100891.41;103102;1282;25321;-60
2022/12/20 04:33:43;;;;;;;39.10;15.10;;;;;;;0.92;83.74;100893.53;103168;1274;22856;-59
2022/12/20 04:36:15;;;;;;;41.70;15.50;;;;;;;0.94;83.57;100898.16;103108;1304;25525;-60
2022/12/20 04:38:47;;;;;;;40.40;15.00;;;;;;;0.94;83.58;100898.86;103047;1303;22476;-62
2022/12/20 04:41:22;;;;;;;44.50;14.60;;;;;;;0.95;83.71;100896.98;103178;1306;22470;-61
2022/12/20 04:43:55;;;;;;;41.00;14.50;;;;;;;0.96;83.68;100896.58;103414;1305;22472;-62
2022/12/20 04:46:27;;;;;;;37.60;13.60;;;;;;;0.96;83.76;100901.30;103311;1282;22461;-60
2022/12/20 04:48:59;;;;;;;43.10;16.40;;;;;;;0.97;83.88;100895.00;103240;1274;24568;-59
2022/12/20 04:51:30;;;;;;;42.90;14.90;;;;;;;0.98;83.51;100902.77;103108;1306;25398;-58
2022/12/20 04:54:01;;;;;;;35.30;13.50;;;;;;;0.99;83.45;100912.05;103431;1282;22475;-67
2022/12/20 04:56:33;;;;;;;40.80;15.50;;;;;;;1.00;83.53;100909.67;103201;1305;22470;-61
2022/12/20 04:59:04;;;;;;;39.10;15.00;;;;;;;1.02;83.60;100919.33;103422;1294;22598;-60
2022/12/20 05:01:36;;;;;;;39.90;15.40;;;;;;;1.02;83.43;100914.63;103186;1306;22481;-61
2022/12/20 05:04:07;;;;;;;47.20;17.20;;;;;;;1.02;83.41;100914.15;103050;1305;22472;-58
2022/12/20 05:06:39;;;;;;;46.00;17.60;;;;;;;1.01;83.30;100912.83;103099;1298;25373;-63
2022/12/20 05:09:10;;;;;;;50.50;17.10;;;;;;;1.02;83.59;100915.25;103305;1282;25526;-60
2022/12/20 05:11:41;;;;;;;42.70;16.80;;;;;;;1.01;83.52;100904.34;103259;1305;24295;-60
2022/12/20 05:14:12;;;;;;;41.50;16.60;;;;;;;1.01;83.71;100900.58;103110;1294;22455;-59
2022/12/20 05:16:44;;;;;;;40.00;15.00;;;;;;;0.99;83.34;100900.11;103121;1281;22470;-61
2022/12/20 05:19:15;;;;;;;41.10;14.20;;;;;;;0.99;83.19;100910.95;103187;1281;24237;-58
2022/12/20 05:27:25;;;;;;;37.90;14.80;;;;;;;0.97;83.19;100889.35;103128;1281;25393;-60
2022/12/20 05:29:56;;;;;;;38.60;13.80;;;;;;;0.96;83.07;100891.94;103147;1306;24629;-61
2022/12/20 05:32:28;;;;;;;43.00;14.90;;;;;;;0.96;83.12;100897.29;103220;1298;22494;-62
2022/12/20 05:35:00;;;;;;;44.30;17.30;;;;;;;0.96;83.20;100908.52;103244;1298;24127;-60
2022/12/20 05:37:35;;;;;;;43.70;16.20;;;;;;;0.96;83.02;100912.52;103388;1288;22483;-60
2022/12/20 05:40:09;;;;;;;46.40;17.70;;;;;;;0.95;83.30;100907.27;103204;1275;22495;-61
2022/12/20 05:42:40;;;;;;;47.10;17.40;;;;;;;0.95;83.21;100902.95;103077;1285;25561;-60
2022/12/20 05:45:12;;;;;;;44.30;15.90;;;;;;;0.95;83.24;100903.34;103242;1305;22463;-64
2022/12/20 05:47:45;;;;;;;44.80;16.90;;;;;;;0.93;83.18;100896.75;103117;1282;24164;-59
2022/12/20 05:50:16;;;;;;;47.30;18.00;;;;;;;0.91;83.28;100887.64;105548;1282;22460;-57
2022/12/20 05:52:48;;;;;;;45.10;18.10;;;;;;;0.92;83.24;100891.48;103069;1282;24244;-59
2022/12/20 05:55:19;;;;;;;41.90;15.10;;;;;;;0.92;83.20;100901.39;103060;1297;24440;-59
2022/12/20 05:57:50;;;;;;;47.10;18.00;;;;;;;0.92;83.33;100890.08;106164;1275;25279;-60
2022/12/20 06:00:23;;;;;;;54.40;18.70;;;;;;;0.92;83.39;100896.12;103049;1289;25401;-59
2022/12/20 06:02:54;;;;;;;47.50;18.10;;;;;;;0.93;83.41;100886.30;103009;1291;24259;-60
2022/12/20 06:05:26;;;;;;;47.10;17.10;;;;;;;0.94;83.49;100891.95;103060;1282;22503;-60
2022/12/20 06:08:00;;;;;;;48.10;17.40;;;;;;;0.94;83.57;100888.10;103052;1296;22592;-58
2022/12/20 06:10:33;;;;;;;45.80;17.20;;;;;;;0.97;83.54;100888.65;103297;1289;22463;-60
2022/12/20 06:13:05;;;;;;;44.60;15.50;;;;;;;0.99;83.48;100892.80;103085;1281;22576;-58
2022/12/20 06:15:37;;;;;;;45.00;14.80;;;;;;;1.01;83.39;100890.82;103195;1282;22473;-59
2022/12/20 06:18:08;;;;;;;44.70;15.80;;;;;;;1.03;83.65;100886.66;103421;1304;22486;-59
2022/12/20 06:20:40;;;;;;;43.80;15.30;;;;;;;1.05;83.58;100891.60;103745;1304;25012;-61
2022/12/20 06:23:12;;;;;;;43.10;16.50;;;;;;;1.08;83.65;100888.27;103351;1283;22557;-60
2022/12/20 06:25:43;;;;;;;40.10;16.50;;;;;;;1.10;83.64;100883.41;103503;1306;22465;-58
2022/12/20 06:28:20;;;;;;;46.00;17.40;;;;;;;1.12;83.82;100877.50;103422;1306;25364;-57
2022/12/20 06:30:55;;;;;;;42.40;17.30;;;;;;;1.14;83.64;100877.65;103522;1292;26049;-59
2022/12/20 06:33:27;;;;;;;48.40;16.30;;;;;;;1.16;83.75;100878.59;103319;1287;22409;-60
2022/12/20 06:35:58;;;;;;;43.70;16.00;;;;;;;1.19;83.78;100879.91;103341;1278;22466;-58
2022/12/20 06:38:30;;;;;;;48.10;17.90;;;;;;;1.21;83.60;100886.73;103365;1306;25656;-59
2022/12/20 06:41:02;;;;;;;48.20;18.50;;;;;;;1.23;83.68;100881.62;103353;1306;22986;-60
2022/12/20 06:43:33;;;;;;;45.60;16.70;;;;;;;1.25;83.62;100875.95;103420;1282;23040;-58
2022/12/20 06:46:06;;;;;;;42.30;16.00;;;;;;;1.28;83.69;100868.54;103347;1306;26633;-60
2022/12/20 06:48:37;;;;;;;47.40;16.60;;;;;;;1.31;83.73;100875.05;103389;1298;25555;-60
2022/12/20 06:51:09;;;;;;;50.40;16.90;;;;;;;1.34;83.52;100887.93;103431;1304;22545;-61
2022/12/20 06:53:41;;;;;;;46.10;17.20;;;;;;;1.36;83.55;100886.81;103469;1275;22515;-58
2022/12/20 06:56:13;;;;;;;45.30;17.10;;;;;;;1.40;83.57;100881.92;103368;1299;22932;-57
2022/12/20 06:58:45;;;;;;;44.80;16.60;;;;;;;1.41;83.52;100881.20;103374;1306;22490;-58
2022/12/20 07:01:16;;;;;;;45.70;16.90;;;;;;;1.43;83.38;100886.15;103295;1282;22482;-60
2022/12/20 07:03:48;;;;;;;43.20;15.50;;;;;;;1.46;83.48;100881.96;103223;1306;22485;-60
2022/12/20 07:06:19;;;;;;;48.20;18.10;;;;;;;1.48;83.44;100883.06;103653;1282;22471;-58
2022/12/20 07:08:51;;;;;;;43.00;15.50;;;;;;;1.50;83.49;100879.75;103266;1274;25331;-58
2022/12/20 07:11:24;;;;;;;50.40;17.60;;;;;;;1.52;83.50;100879.18;103167;1282;22465;-60
2022/12/20 07:13:59;;;;;;;46.40;17.30;;;;;;;1.54;83.52;100885.86;103219;1304;24305;-58
2022/12/20 07:16:32;;;;;;;47.20;17.00;;;;;;;1.56;83.50;100885.68;103432;1306;22466;-59
2022/12/20 07:19:04;;;;;;;45.90;16.10;;;;;;;1.59;83.47;100884.33;102987;1305;25540;-60
2022/12/20 07:21:35;;;;;;;39.80;14.60;;;;;;;1.62;83.46;100889.50;103591;1289;22490;-58
2022/12/20 07:24:09;;;;;;;46.20;18.40;;;;;;;1.64;83.23;100892.40;103186;1274;25886;-58
2022/12/20 07:26:40;;;;;;;47.00;16.80;;;;;;;1.67;83.18;100894.66;103141;1281;22588;-58
2022/12/20 07:29:12;;;;;;;47.70;16.90;;;;;;;1.69;83.43;100888.83;103142;1281;22472;-58
2022/12/20 07:31:43;;;;;;;49.20;17.90;;;;;;;1.70;83.20;100894.10;102975;1298;23073;-60
2022/12/20 07:34:15;;;;;;;47.30;16.50;;;;;;;1.72;83.32;100895.89;103138;1305;22487;-58
2022/12/20 07:36:48;;;;;;;46.10;15.60;;;;;;;1.75;83.29;100888.64;103128;1305;23201;-59
2022/12/20 07:39:19;;;;;;;41.00;15.90;;;;;;;1.77;83.13;100883.27;103151;1288;24308;-60
2022/12/20 07:41:53;;;;;;;44.60;15.80;;;;;;;1.78;83.25;100880.36;103127;1304;22472;-59
2022/12/20 07:44:26;;;;;;;47.70;16.70;;;;;;;1.80;83.24;100884.82;103246;1282;25328;-59
2022/12/20 07:46:58;;;;;;;40.10;14.60;;;;;;;1.81;83.20;100884.34;103148;1304;22623;-58
2022/12/20 07:49:29;;;;;;;45.60;17.80;;;;;;;1.83;83.15;100877.32;103336;1283;24263;-58
2022/12/20 07:52:03;;;;;;;52.40;18.50;;;;;;;1.85;83.23;100878.56;103089;1306;25688;-59
2022/12/20 07:54:38;;;;;;;43.80;16.50;;;;;;;1.88;83.26;100883.20;103034;1282;24017;-58
2022/12/20 07:57:16;;;;;;;48.40;17.50;;;;;;;1.89;83.15;100883.11;103060;1281;22506;-58
2022/12/20 07:59:51;;;;;;;44.90;17.60;;;;;;;1.91;83.23;100884.97;103085;1305;22480;-61
2022/12/20 08:02:27;;;;;;;43.10;15.20;;;;;;;1.93;83.04;100877.65;103118;1306;23940;-59
2022/12/20 08:04:59;;;;;;;49.50;17.00;;;;;;;1.94;83.14;100885.02;103220;1305;22582;-61
2022/12/20 08:07:33;;;;;;;54.20;18.30;;;;;;;1.96;83.27;100874.31;103468;1284;25477;-57
2022/12/20 08:10:09;;;;;;;41.60;15.30;;;;;;;1.99;83.26;100876.02;103148;1306;22644;-60
2022/12/20 08:12:42;;;;;;;47.90;15.80;;;;;;;2.01;82.99;100875.84;103203;1282;23215;-59
2022/12/20 08:15:15;;;;;;;45.00;15.40;;;;;;;2.02;82.90;100871.91;103229;1292;22453;-58
2022/12/20 08:17:46;;;;;;;44.90;16.20;;;;;;;2.03;82.86;100863.26;103118;1281;22470;-57
2022/12/20 08:20:19;;;;;;;43.90;16.60;;;;;;;2.05;82.78;100860.86;103070;1283;22462;-58
2022/12/20 08:22:50;;;;;;;50.20;17.10;;;;;;;2.08;82.98;100861.55;103054;1306;25556;-57
2022/12/20 08:25:22;;;;;;;44.20;16.50;;;;;;;2.11;82.84;100865.84;103133;1282;25229;-56
2022/12/20 08:27:53;;;;;;;43.90;16.50;;;;;;;2.13;82.89;100859.79;103069;1305;25275;-60
2022/12/20 08:30:24;;;;;;;46.40;17.20;;;;;;;2.14;82.88;100858.27;103237;1274;22455;-59
2022/12/20 08:32:56;;;;;;;48.50;18.20;;;;;;;2.16;82.70;100866.27;103227;1298;22505;-58
2022/12/20 08:35:28;;;;;;;53.00;18.10;;;;;;;2.17;82.79;100859.81;103105;1305;25543;-55
2022/12/20 08:37:59;;;;;;;49.30;18.90;;;;;;;2.18;82.71;100862.95;103249;1306;22582;-57
2022/12/20 08:40:30;;;;;;;44.60;16.70;;;;;;;2.20;82.85;100861.29;103174;1306;23003;-58
2022/12/20 08:43:02;;;;;;;41.70;15.60;;;;;;;2.21;82.68;100863.97;103200;1274;22601;-59
2022/12/20 08:45:34;;;;;;;44.50;16.40;;;;;;;2.21;82.67;100868.77;103244;1283;22587;-59
2022/12/20 08:48:06;;;;;;;45.70;17.90;;;;;;;2.20;82.64;100869.79;103261;1306;22496;-59
2022/12/20 08:50:37;;;;;;;52.60;17.40;;;;;;;2.21;82.75;100874.51;103264;1281;25451;-57
2022/12/20 08:53:09;;;;;;;47.60;17.80;;;;;;;2.23;82.73;100883.86;103196;1306;25312;-60
2022/12/20 08:55:40;;;;;;;44.00;16.70;;;;;;;2.25;82.70;100897.39;103269;1304;24368;-58
2022/12/20 08:58:12;;;;;;;50.60;16.30;;;;;;;2.27;82.44;100897.74;103252;1274;25211;-59
2022/12/20 09:00:43;;;;;;;47.70;18.20;;;;;;;2.29;82.50;100902.84;103066;1282;24307;-61
2022/12/20 09:03:15;;;;;;;47.80;18.30;;;;;;;2.32;82.63;100896.52;103271;1282;25593;-58
2022/12/20 09:05:49;;;;;;;48.20;18.60;;;;;;;2.34;82.54;100890.28;103296;1280;23050;-57
2022/12/20 09:08:21;;;;;;;48.60;17.90;;;;;;;2.36;82.54;100890.65;103248;1306;23908;-58
2022/12/20 09:10:53;;;;;;;46.40;16.80;;;;;;;2.40;82.49;100894.64;103209;1306;25500;-57
2022/12/20 09:13:25;;;;;;;44.40;16.10;;;;;;;2.41;82.21;100887.30;103562;1281;22710;-58
2022/12/20 09:15:56;;;;;;;48.60;17.40;;;;;;;2.42;82.34;100881.70;103292;1282;24431;-59
2022/12/20 09:18:28;;;;;;;51.80;17.90;;;;;;;2.43;82.14;100882.73;103203;1281;24017;-60
2022/12/20 09:21:01;;;;;;;46.90;17.20;;;;;;;2.46;82.24;100881.04;103244;1307;22469;-58
2022/12/20 09:23:34;;;;;;;47.60;18.50;;;;;;;2.49;82.22;100879.60;103029;1282;25381;-57
2022/12/20 09:26:08;;;;;;;50.90;18.20;;;;;;;2.54;82.40;100872.06;103179;1298;22474;-58
2022/12/20 09:28:39;;;;;;;47.70;18.80;;;;;;;2.58;82.27;100869.35;103084;1300;22495;-59
2022/12/20 09:31:14;;;;;;;43.20;17.20;;;;;;;2.62;82.38;100866.32;103095;1280;24640;-59
2022/12/20 09:33:46;;;;;;;43.10;15.00;;;;;;;2.65;81.98;100866.90;103051;1288;22482;-59
2022/12/20 09:36:20;;;;;;;51.30;17.90;;;;;;;2.68;81.96;100870.65;103179;1282;25323;-59
2022/12/20 09:38:54;;;;;;;45.20;17.10;;;;;;;2.72;81.57;100869.19;103123;1282;22523;-57
2022/12/20 09:41:29;;;;;;;39.90;15.60;;;;;;;2.75;81.70;100869.70;103234;1306;22496;-59
2022/12/20 09:44:14;;;;;;;42.60;15.60;;;;;;;2.76;81.53;100866.15;103173;1306;22476;-57
2022/12/20 09:46:47;;;;;;;46.30;16.10;;;;;;;2.77;81.68;100857.80;103222;1305;22478;-58
2022/12/20 09:49:20;;;;;;;51.70;19.40;;;;;;;2.79;81.65;100844.47;103170;1282;25397;-58
2022/12/20 09:52:16;;;;;;;50.50;20.60;;;;;;;2.79;81.68;100824.23;103049;1282;24174;-57
2022/12/20 09:54:55;;;;;;;51.30;18.50;;;;;;;2.80;81.65;100822.46;103110;1304;25221;-58
2022/12/20 09:57:34;;;;;;;47.50;17.80;;;;;;;2.78;81.50;100822.09;103170;1306;24900;-59
2022/12/20 10:00:14;;;;;;;50.80;19.00;;;;;;;2.78;81.39;100821.70;103060;1282;23329;-58
2022/12/20 10:02:46;;;;;;;47.20;18.70;;;;;;;2.79;81.38;100824.85;103069;1306;24566;-57
2022/12/20 10:05:23;;;;;;;49.60;18.60;;;;;;;2.79;81.24;100825.70;103207;1282;22463;-55
2022/12/20 10:08:00;;;;;;;48.40;19.00;;;;;;;2.80;81.39;100833.73;103350;1306;22496;-58
2022/12/20 10:10:48;;;;;;;44.60;18.90;;;;;;;2.85;81.32;100848.88;103274;1294;22600;-58
2022/12/20 10:13:34;;;;;;;48.10;19.00;;;;;;;2.89;81.29;100848.52;103137;1306;22476;-59
2022/12/20 10:16:19;;;;;;;44.20;17.80;;;;;;;2.93;81.23;100844.91;103140;1305;22484;-57
2022/12/20 10:19:04;;;;;;;44.00;17.30;;;;;;;2.95;81.13;100845.85;103241;1283;24308;-56
2022/12/20 10:21:48;;;;;;;47.80;17.40;;;;;;;2.96;81.08;100850.09;102926;1306;22657;-57
2022/12/20 10:24:26;;;;;;;43.90;16.50;;;;;;;2.97;81.06;100854.02;103208;1283;22474;-59
2022/12/20 10:26:58;;;;;;;43.90;15.90;;;;;;;2.96;80.89;100842.83;103074;1282;25481;-58
2022/12/20 10:29:30;;;;;;;46.40;17.60;;;;;;;2.92;80.71;100833.82;103074;1282;24389;-58
2022/12/20 10:32:03;;;;;;;42.60;15.90;;;;;;;2.88;80.44;100833.02;103172;1306;25766;-56
2022/12/20 10:34:34;;;;;;;43.30;16.40;;;;;;;2.84;80.68;100836.91;103251;1306;22472;-58
2022/12/20 10:37:16;;;;;;;44.80;17.70;;;;;;;2.83;80.85;100836.06;103143;1305;22466;-59
2022/12/20 10:39:51;;;;;;;50.50;19.80;;;;;;;2.82;80.96;100846.32;103130;1282;26117;-60
2022/12/20 10:42:30;;;;;;;44.80;17.30;;;;;;;2.82;80.83;100836.55;103133;1281;22479;-59
2022/12/20 10:45:02;;;;;;;47.20;18.00;;;;;;;2.79;80.86;100830.52;103038;1281;23078;-58
2022/12/20 10:47:42;;;;;;;53.20;17.40;;;;;;;2.78;80.83;100829.27;103047;1284;22468;-57
2022/12/20 10:50:19;;;;;;;45.80;17.60;;;;;;;2.75;80.61;100814.63;103153;1306;24262;-61
2022/12/20 10:53:18;;;;;;;46.70;17.40;;;;;;;2.75;80.78;100820.31;103112;1306;22598;-59
2022/12/20 10:55:52;;;;;;;51.00;18.50;;;;;;;2.73;80.60;100819.47;103109;1306;25369;-58
2022/12/20 10:58:35;;;;;;;52.10;18.30;;;;;;;2.74;80.84;100817.73;103151;1282;22714;-57
2022/12/20 11:01:13;;;;;;;51.90;18.80;;;;;;;2.78;81.02;100816.35;103256;1282;22488;-59
2022/12/20 11:03:56;;;;;;;44.90;17.80;;;;;;;2.80;81.06;100806.80;103048;1298;22472;-57
2022/12/20 11:06:40;;;;;;;47.40;17.80;;;;;;;2.84;81.00;100801.06;103109;1306;25521;-56
2022/12/20 11:09:30;;;;;;;48.90;19.70;;;;;;;2.87;80.99;100803.79;103034;1282;22464;-58
2022/12/20 11:12:12;;;;;;;52.40;19.40;;;;;;;2.91;80.98;100804.84;103238;1307;22670;-58
2022/12/20 11:14:45;;;;;;;55.90;19.60;;;;;;;2.92;81.02;100787.17;103003;1282;22473;-57
2022/12/20 11:17:23;;;;;;;54.20;19.80;;;;;;;2.95;81.17;100783.42;103093;1306;24253;-57
2022/12/20 11:20:12;;;;;;;48.20;19.60;;;;;;;3.00;81.32;100778.00;103054;1288;25317;-59
2022/12/20 11:22:52;;;;;;;48.90;18.70;;;;;;;3.05;81.13;100788.41;103338;1306;24188;-60
2022/12/20 11:25:45;;;;;;;54.10;18.40;;;;;;;3.11;81.04;100790.79;103336;1282;22475;-59
2022/12/20 11:28:36;;;;;;;50.00;19.50;;;;;;;3.15;80.81;100790.65;103288;1306;23754;-59
2022/12/20 11:31:16;;;;;;;52.40;18.40;;;;;;;3.19;81.17;100787.83;103197;1283;22469;-58
2022/12/20 11:34:11;;;;;;;49.40;19.10;;;;;;;3.20;80.87;100780.02;103099;1306;24286;-59
2022/12/20 11:36:58;;;;;;;45.00;17.70;;;;;;;3.21;80.86;100777.08;103093;1299;22499;-57
2022/12/20 11:39:38;;;;;;;51.10;18.40;;;;;;;3.20;80.74;100772.13;103246;1310;24279;-59
2022/12/20 11:42:18;;;;;;;41.70;18.10;;;;;;;3.19;80.64;100770.65;102982;1283;26699;-58
2022/12/20 11:44:58;;;;;;;50.40;18.20;;;;;;;3.19;80.91;100756.08;103056;1306;22563;-57
2022/12/20 11:47:50;;;;;;;54.40;19.90;;;;;;;3.18;80.70;100759.95;103095;1289;24244;-58
2022/12/20 11:50:50;;;;;;;44.00;17.30;;;;;;;3.20;80.77;100763.86;103104;1288;25272;-57